首页
METAR-TAF:

METAR-TAF

机场 :

基林, 得克萨斯州, 美国

纬度: 31-05N, 经度: 097-41W, 海拔: 258米

当前天气观测

该预报发布于1小时和2分钟前的22:56 UTC
风速15节,风向,有时为20节阵风
温度 36°C
湿度 39%
气压 1014 hPa
能見度: 16.1公里
天空无云

METAR: KILE 152256Z AUTO 17015G20KT 10SM CLR 36/20 A2993 RMK AO2 SLP121 T03610200

时间: 18:58 (23:58 UTC)


TAF: 丢失

超过4000个机场的气象观测和天气预报(METAR&TAF报告)。

可查询的气象台以黄色和红色小点在地图上表示。

将鼠标移到小点上方,可查看气象台名称。

然后点击查看天气观测和预报。

如需切换地图:点击带黑十字的绿色按钮放大地图;点击带横线的绿色按钮缩小地图;或者点击绿色箭头查看邻近地区的地图。


METAR-TAF: